sensor_id;sensor_type;location;lat;lon;timestamp;P1;durP1;ratioP1;P2;durP2;ratioP2
9106;SDS011;4589;48.690;8.952;2023-03-13T00:00:29;11.67;;;3.70;;
9106;SDS011;4589;48.690;8.952;2023-03-13T00:02:56;10.33;;;3.90;;
9106;SDS011;4589;48.690;8.952;2023-03-13T00:05:22;7.13;;;4.40;;
9106;SDS011;4589;48.690;8.952;2023-03-13T00:07:48;9.30;;;3.93;;
9106;SDS011;4589;48.690;8.952;2023-03-13T00:10:13;7.33;;;3.63;;
9106;SDS011;4589;48.690;8.952;2023-03-13T00:12:39;5.50;;;3.13;;
9106;SDS011;4589;48.690;8.952;2023-03-13T00:15:06;5.87;;;2.80;;
9106;SDS011;4589;48.690;8.952;2023-03-13T00:17:32;7.90;;;3.50;;
9106;SDS011;4589;48.690;8.952;2023-03-13T00:19:58;7.60;;;3.00;;
9106;SDS011;4589;48.690;8.952;2023-03-13T00:22:24;6.40;;;3.20;;
9106;SDS011;4589;48.690;8.952;2023-03-13T00:24:49;12.20;;;3.63;;
9106;SDS011;4589;48.690;8.952;2023-03-13T00:27:15;12.63;;;3.70;;
9106;SDS011;4589;48.690;8.952;2023-03-13T00:29:41;16.20;;;4.70;;
9106;SDS011;4589;48.690;8.952;2023-03-13T00:32:07;6.07;;;2.87;;
9106;SDS011;4589;48.690;8.952;2023-03-13T00:34:33;7.20;;;3.00;;
9106;SDS011;4589;48.690;8.952;2023-03-13T00:36:59;7.63;;;2.50;;
9106;SDS011;4589;48.690;8.952;2023-03-13T00:39:25;7.20;;;2.53;;
9106;SDS011;4589;48.690;8.952;2023-03-13T00:41:51;6.43;;;2.53;;
9106;SDS011;4589;48.690;8.952;2023-03-13T00:44:17;3.47;;;2.57;;
9106;SDS011;4589;48.690;8.952;2023-03-13T00:46:43;5.10;;;2.67;;
9106;SDS011;4589;48.690;8.952;2023-03-13T00:49:09;6.17;;;2.53;;
9106;SDS011;4589;48.690;8.952;2023-03-13T00:51:35;8.07;;;2.57;;
9106;SDS011;4589;48.690;8.952;2023-03-13T00:54:01;6.60;;;2.30;;
9106;SDS011;4589;48.690;8.952;2023-03-13T00:56:28;10.07;;;2.87;;
9106;SDS011;4589;48.690;8.952;2023-03-13T00:58:54;10.03;;;2.97;;
9106;SDS011;4589;48.690;8.952;2023-03-13T01:01:24;7.17;;;2.50;;
9106;SDS011;4589;48.690;8.952;2023-03-13T01:03:52;5.73;;;2.60;;
9106;SDS011;4589;48.690;8.952;2023-03-13T01:06:20;7.53;;;2.53;;
9106;SDS011;4589;48.690;8.952;2023-03-13T01:08:47;4.70;;;2.47;;
9106;SDS011;4589;48.690;8.952;2023-03-13T01:11:14;4.60;;;1.80;;
9106;SDS011;4589;48.690;8.952;2023-03-13T01:13:41;5.13;;;2.83;;
9106;SDS011;4589;48.690;8.952;2023-03-13T01:16:08;3.90;;;2.00;;
9106;SDS011;4589;48.690;8.952;2023-03-13T01:18:35;4.73;;;1.67;;
9106;SDS011;4589;48.690;8.952;2023-03-13T01:21:01;6.00;;;2.67;;
9106;SDS011;4589;48.690;8.952;2023-03-13T01:23:27;7.73;;;2.23;;
9106;SDS011;4589;48.690;8.952;2023-03-13T01:25:54;7.63;;;2.30;;
9106;SDS011;4589;48.690;8.952;2023-03-13T01:28:20;3.97;;;2.00;;
9106;SDS011;4589;48.690;8.952;2023-03-13T01:30:46;5.43;;;1.80;;
9106;SDS011;4589;48.690;8.952;2023-03-13T01:33:12;7.30;;;2.30;;
9106;SDS011;4589;48.690;8.952;2023-03-13T01:35:38;5.70;;;2.17;;
9106;SDS011;4589;48.690;8.952;2023-03-13T01:38:04;8.83;;;2.00;;
9106;SDS011;4589;48.690;8.952;2023-03-13T01:40:30;2.13;;;1.87;;
9106;SDS011;4589;48.690;8.952;2023-03-13T01:42:57;4.10;;;2.30;;
9106;SDS011;4589;48.690;8.952;2023-03-13T01:48:29;11.23;;;2.03;;
9106;SDS011;4589;48.690;8.952;2023-03-13T01:50:57;3.20;;;1.77;;
9106;SDS011;4589;48.690;8.952;2023-03-13T01:53:24;4.47;;;1.67;;
9106;SDS011;4589;48.690;8.952;2023-03-13T01:55:51;6.57;;;1.73;;
9106;SDS011;4589;48.690;8.952;2023-03-13T01:58:18;6.93;;;1.73;;
9106;SDS011;4589;48.690;8.952;2023-03-13T02:00:44;6.97;;;2.00;;
9106;SDS011;4589;48.690;8.952;2023-03-13T02:03:11;3.77;;;1.50;;
9106;SDS011;4589;48.690;8.952;2023-03-13T02:05:39;4.57;;;2.07;;
9106;SDS011;4589;48.690;8.952;2023-03-13T02:08:24;8.37;;;1.77;;
9106;SDS011;4589;48.690;8.952;2023-03-13T02:11:06;8.33;;;2.33;;
9106;SDS011;4589;48.690;8.952;2023-03-13T02:13:35;7.50;;;2.63;;
9106;SDS011;4589;48.690;8.952;2023-03-13T02:16:01;3.70;;;1.90;;
9106;SDS011;4589;48.690;8.952;2023-03-13T02:18:27;7.67;;;1.97;;
9106;SDS011;4589;48.690;8.952;2023-03-13T02:20:54;2.47;;;1.53;;
9106;SDS011;4589;48.690;8.952;2023-03-13T02:23:28;1.80;;;1.37;;
9106;SDS011;4589;48.690;8.952;2023-03-13T02:25:56;2.80;;;1.80;;
9106;SDS011;4589;48.690;8.952;2023-03-13T02:28:23;2.80;;;1.50;;
9106;SDS011;4589;48.690;8.952;2023-03-13T02:30:53;2.07;;;1.40;;
9106;SDS011;4589;48.690;8.952;2023-03-13T02:33:20;4.00;;;2.30;;
9106;SDS011;4589;48.690;8.952;2023-03-13T02:35:47;7.47;;;1.40;;
9106;SDS011;4589;48.690;8.952;2023-03-13T02:38:15;2.17;;;1.73;;
9106;SDS011;4589;48.690;8.952;2023-03-13T02:40:44;3.17;;;1.70;;
9106;SDS011;4589;48.690;8.952;2023-03-13T02:43:13;5.07;;;1.50;;
9106;SDS011;4589;48.690;8.952;2023-03-13T02:45:40;2.07;;;1.20;;
9106;SDS011;4589;48.690;8.952;2023-03-13T02:48:06;2.50;;;1.50;;
9106;SDS011;4589;48.690;8.952;2023-03-13T02:50:32;3.03;;;1.57;;
9106;SDS011;4589;48.690;8.952;2023-03-13T02:53:02;2.40;;;1.43;;
9106;SDS011;4589;48.690;8.952;2023-03-13T02:55:31;5.60;;;1.53;;
9106;SDS011;4589;48.690;8.952;2023-03-13T02:57:59;4.00;;;1.50;;
9106;SDS011;4589;48.690;8.952;2023-03-13T03:00:25;2.83;;;1.80;;
9106;SDS011;4589;48.690;8.952;2023-03-13T03:02:52;2.23;;;1.50;;
9106;SDS011;4589;48.690;8.952;2023-03-13T03:05:19;4.80;;;1.30;;
9106;SDS011;4589;48.690;8.952;2023-03-13T03:07:46;4.67;;;1.73;;
9106;SDS011;4589;48.690;8.952;2023-03-13T03:10:12;3.93;;;1.60;;
9106;SDS011;4589;48.690;8.952;2023-03-13T03:12:38;3.53;;;1.30;;
9106;SDS011;4589;48.690;8.952;2023-03-13T03:15:04;4.03;;;1.33;;
9106;SDS011;4589;48.690;8.952;2023-03-13T03:17:30;3.43;;;1.77;;
9106;SDS011;4589;48.690;8.952;2023-03-13T03:19:56;6.37;;;1.30;;
9106;SDS011;4589;48.690;8.952;2023-03-13T03:22:22;4.20;;;1.70;;
9106;SDS011;4589;48.690;8.952;2023-03-13T03:24:48;3.10;;;1.30;;
9106;SDS011;4589;48.690;8.952;2023-03-13T03:27:14;3.20;;;1.23;;
9106;SDS011;4589;48.690;8.952;2023-03-13T03:29:40;2.57;;;1.40;;
9106;SDS011;4589;48.690;8.952;2023-03-13T03:32:06;3.27;;;1.30;;
9106;SDS011;4589;48.690;8.952;2023-03-13T03:34:32;4.93;;;1.70;;
9106;SDS011;4589;48.690;8.952;2023-03-13T03:36:58;3.80;;;1.37;;
9106;SDS011;4589;48.690;8.952;2023-03-13T03:39:24;4.60;;;1.10;;
9106;SDS011;4589;48.690;8.952;2023-03-13T03:41:50;2.70;;;1.33;;
9106;SDS011;4589;48.690;8.952;2023-03-13T03:44:16;1.90;;;1.50;;
9106;SDS011;4589;48.690;8.952;2023-03-13T03:46:42;2.33;;;1.23;;
9106;SDS011;4589;48.690;8.952;2023-03-13T03:49:08;1.20;;;0.97;;
9106;SDS011;4589;48.690;8.952;2023-03-13T03:51:33;1.97;;;1.27;;
9106;SDS011;4589;48.690;8.952;2023-03-13T03:53:59;1.80;;;1.30;;
9106;SDS011;4589;48.690;8.952;2023-03-13T03:56:25;1.20;;;1.00;;
9106;SDS011;4589;48.690;8.952;2023-03-13T03:58:51;1.20;;;1.10;;
9106;SDS011;4589;48.690;8.952;2023-03-13T04:01:17;2.50;;;1.40;;
9106;SDS011;4589;48.690;8.952;2023-03-13T04:03:43;1.37;;;1.20;;
9106;SDS011;4589;48.690;8.952;2023-03-13T04:06:09;2.00;;;1.03;;
9106;SDS011;4589;48.690;8.952;2023-03-13T04:08:35;1.90;;;1.40;;
9106;SDS011;4589;48.690;8.952;2023-03-13T04:11:01;2.23;;;1.10;;
9106;SDS011;4589;48.690;8.952;2023-03-13T04:13:27;3.93;;;1.60;;
9106;SDS011;4589;48.690;8.952;2023-03-13T04:15:53;1.30;;;1.10;;
9106;SDS011;4589;48.690;8.952;2023-03-13T04:18:19;2.60;;;1.23;;
9106;SDS011;4589;48.690;8.952;2023-03-13T04:20:45;1.63;;;1.10;;
9106;SDS011;4589;48.690;8.952;2023-03-13T04:23:11;2.33;;;1.03;;
9106;SDS011;4589;48.690;8.952;2023-03-13T04:25:37;1.70;;;1.10;;
9106;SDS011;4589;48.690;8.952;2023-03-13T04:28:03;1.33;;;1.23;;
9106;SDS011;4589;48.690;8.952;2023-03-13T04:30:29;1.87;;;1.43;;
9106;SDS011;4589;48.690;8.952;2023-03-13T04:32:55;1.80;;;0.93;;
9106;SDS011;4589;48.690;8.952;2023-03-13T04:35:21;3.10;;;1.37;;
9106;SDS011;4589;48.690;8.952;2023-03-13T04:37:47;1.50;;;1.00;;
9106;SDS011;4589;48.690;8.952;2023-03-13T04:40:13;1.77;;;1.20;;
9106;SDS011;4589;48.690;8.952;2023-03-13T04:42:40;2.33;;;0.90;;
9106;SDS011;4589;48.690;8.952;2023-03-13T04:45:06;1.20;;;0.97;;
9106;SDS011;4589;48.690;8.952;2023-03-13T04:47:34;1.70;;;0.87;;
9106;SDS011;4589;48.690;8.952;2023-03-13T04:50:00;3.80;;;1.50;;
9106;SDS011;4589;48.690;8.952;2023-03-13T04:52:26;2.43;;;1.30;;
9106;SDS011;4589;48.690;8.952;2023-03-13T04:54:52;2.03;;;1.20;;
9106;SDS011;4589;48.690;8.952;2023-03-13T04:57:18;1.60;;;1.30;;
9106;SDS011;4589;48.690;8.952;2023-03-13T04:59:44;1.47;;;1.17;;
9106;SDS011;4589;48.690;8.952;2023-03-13T05:02:11;1.43;;;1.10;;
9106;SDS011;4589;48.690;8.952;2023-03-13T05:04:37;1.47;;;1.00;;
9106;SDS011;4589;48.690;8.952;2023-03-13T05:07:03;1.70;;;1.07;;
9106;SDS011;4589;48.690;8.952;2023-03-13T05:09:29;1.83;;;1.00;;
9106;SDS011;4589;48.690;8.952;2023-03-13T05:11:55;1.30;;;1.10;;
9106;SDS011;4589;48.690;8.952;2023-03-13T05:14:20;1.50;;;1.00;;
9106;SDS011;4589;48.690;8.952;2023-03-13T05:16:46;2.27;;;1.10;;
9106;SDS011;4589;48.690;8.952;2023-03-13T05:19:12;1.60;;;1.10;;
9106;SDS011;4589;48.690;8.952;2023-03-13T05:21:38;1.30;;;1.00;;
9106;SDS011;4589;48.690;8.952;2023-03-13T05:24:04;1.30;;;1.20;;
9106;SDS011;4589;48.690;8.952;2023-03-13T05:26:30;2.27;;;1.00;;
9106;SDS011;4589;48.690;8.952;2023-03-13T05:28:56;1.13;;;1.03;;
9106;SDS011;4589;48.690;8.952;2023-03-13T05:31:22;2.50;;;0.90;;
9106;SDS011;4589;48.690;8.952;2023-03-13T05:33:48;1.63;;;1.00;;
9106;SDS011;4589;48.690;8.952;2023-03-13T05:36:14;1.10;;;1.00;;
9106;SDS011;4589;48.690;8.952;2023-03-13T05:38:40;2.70;;;1.00;;
9106;SDS011;4589;48.690;8.952;2023-03-13T05:41:06;2.13;;;1.00;;
9106;SDS011;4589;48.690;8.952;2023-03-13T05:43:32;1.60;;;1.03;;
9106;SDS011;4589;48.690;8.952;2023-03-13T05:45:58;2.93;;;1.13;;
9106;SDS011;4589;48.690;8.952;2023-03-13T05:48:24;2.63;;;1.27;;
9106;SDS011;4589;48.690;8.952;2023-03-13T05:50:50;3.37;;;0.80;;
9106;SDS011;4589;48.690;8.952;2023-03-13T05:53:16;2.70;;;1.07;;
9106;SDS011;4589;48.690;8.952;2023-03-13T05:55:42;1.40;;;1.30;;
9106;SDS011;4589;48.690;8.952;2023-03-13T05:58:08;1.50;;;1.10;;
9106;SDS011;4589;48.690;8.952;2023-03-13T06:00:34;2.00;;;1.10;;
9106;SDS011;4589;48.690;8.952;2023-03-13T06:03:00;1.20;;;0.90;;
9106;SDS011;4589;48.690;8.952;2023-03-13T06:05:26;1.20;;;0.90;;
9106;SDS011;4589;48.690;8.952;2023-03-13T06:07:52;2.80;;;1.00;;
9106;SDS011;4589;48.690;8.952;2023-03-13T06:10:18;2.23;;;0.83;;
9106;SDS011;4589;48.690;8.952;2023-03-13T06:12:44;1.23;;;0.90;;
9106;SDS011;4589;48.690;8.952;2023-03-13T06:15:16;2.23;;;1.00;;
9106;SDS011;4589;48.690;8.952;2023-03-13T06:17:42;0.90;;;0.80;;
9106;SDS011;4589;48.690;8.952;2023-03-13T06:20:08;1.27;;;1.00;;
9106;SDS011;4589;48.690;8.952;2023-03-13T06:22:35;1.30;;;1.10;;
9106;SDS011;4589;48.690;8.952;2023-03-13T06:25:01;1.20;;;0.90;;
9106;SDS011;4589;48.690;8.952;2023-03-13T06:27:27;1.00;;;0.90;;
9106;SDS011;4589;48.690;8.952;2023-03-13T06:29:53;2.00;;;0.90;;
9106;SDS011;4589;48.690;8.952;2023-03-13T06:32:19;1.30;;;0.90;;
9106;SDS011;4589;48.690;8.952;2023-03-13T06:34:45;0.90;;;0.80;;
9106;SDS011;4589;48.690;8.952;2023-03-13T06:37:11;4.70;;;2.23;;
9106;SDS011;4589;48.690;8.952;2023-03-13T06:39:37;1.30;;;1.00;;
9106;SDS011;4589;48.690;8.952;2023-03-13T06:42:03;1.40;;;1.00;;
9106;SDS011;4589;48.690;8.952;2023-03-13T06:44:29;3.00;;;2.57;;
9106;SDS011;4589;48.690;8.952;2023-03-13T06:46:55;2.20;;;1.87;;
9106;SDS011;4589;48.690;8.952;2023-03-13T06:49:21;1.20;;;1.10;;
9106;SDS011;4589;48.690;8.952;2023-03-13T06:51:47;2.30;;;1.73;;
9106;SDS011;4589;48.690;8.952;2023-03-13T06:54:13;3.67;;;1.73;;
9106;SDS011;4589;48.690;8.952;2023-03-13T06:56:39;2.90;;;1.90;;
9106;SDS011;4589;48.690;8.952;2023-03-13T06:59:05;1.70;;;1.10;;
9106;SDS011;4589;48.690;8.952;2023-03-13T07:01:31;1.30;;;1.10;;
9106;SDS011;4589;48.690;8.952;2023-03-13T07:03:57;2.33;;;1.53;;
9106;SDS011;4589;48.690;8.952;2023-03-13T07:06:23;1.50;;;0.90;;
9106;SDS011;4589;48.690;8.952;2023-03-13T07:08:49;4.00;;;2.40;;
9106;SDS011;4589;48.690;8.952;2023-03-13T07:11:15;1.20;;;1.10;;
9106;SDS011;4589;48.690;8.952;2023-03-13T07:13:41;1.43;;;0.90;;
9106;SDS011;4589;48.690;8.952;2023-03-13T07:16:08;1.50;;;1.10;;
9106;SDS011;4589;48.690;8.952;2023-03-13T07:18:34;1.63;;;1.00;;
9106;SDS011;4589;48.690;8.952;2023-03-13T07:21:01;1.10;;;1.00;;
9106;SDS011;4589;48.690;8.952;2023-03-13T07:23:30;1.20;;;1.00;;
9106;SDS011;4589;48.690;8.952;2023-03-13T07:25:57;1.10;;;0.90;;
9106;SDS011;4589;48.690;8.952;2023-03-13T07:28:25;1.70;;;1.00;;
9106;SDS011;4589;48.690;8.952;2023-03-13T07:30:51;1.67;;;0.90;;
9106;SDS011;4589;48.690;8.952;2023-03-13T07:33:17;1.17;;;0.83;;
9106;SDS011;4589;48.690;8.952;2023-03-13T07:35:47;1.20;;;1.00;;
9106;SDS011;4589;48.690;8.952;2023-03-13T07:38:14;1.23;;;1.00;;
9106;SDS011;4589;48.690;8.952;2023-03-13T07:40:46;1.50;;;1.00;;
9106;SDS011;4589;48.690;8.952;2023-03-13T07:43:12;1.17;;;0.90;;
9106;SDS011;4589;48.690;8.952;2023-03-13T07:45:37;1.60;;;1.00;;
9106;SDS011;4589;48.690;8.952;2023-03-13T07:48:03;1.40;;;1.30;;
9106;SDS011;4589;48.690;8.952;2023-03-13T07:50:30;1.33;;;1.13;;
9106;SDS011;4589;48.690;8.952;2023-03-13T07:52:55;1.10;;;0.90;;
9106;SDS011;4589;48.690;8.952;2023-03-13T07:55:21;1.40;;;1.00;;
9106;SDS011;4589;48.690;8.952;2023-03-13T07:57:47;2.77;;;1.33;;
9106;SDS011;4589;48.690;8.952;2023-03-13T08:00:13;1.07;;;0.90;;
9106;SDS011;4589;48.690;8.952;2023-03-13T08:02:41;1.20;;;0.93;;
9106;SDS011;4589;48.690;8.952;2023-03-13T08:05:07;2.23;;;1.00;;
9106;SDS011;4589;48.690;8.952;2023-03-13T08:07:33;1.57;;;1.30;;
9106;SDS011;4589;48.690;8.952;2023-03-13T08:09:59;1.50;;;1.00;;
9106;SDS011;4589;48.690;8.952;2023-03-13T08:12:25;1.30;;;1.20;;
9106;SDS011;4589;48.690;8.952;2023-03-13T08:14:51;1.23;;;1.13;;
9106;SDS011;4589;48.690;8.952;2023-03-13T08:17:17;1.33;;;0.97;;
9106;SDS011;4589;48.690;8.952;2023-03-13T08:19:43;2.40;;;1.00;;
9106;SDS011;4589;48.690;8.952;2023-03-13T08:22:09;1.20;;;1.07;;
9106;SDS011;4589;48.690;8.952;2023-03-13T08:24:35;1.90;;;1.50;;
9106;SDS011;4589;48.690;8.952;2023-03-13T08:27:01;1.30;;;1.17;;
9106;SDS011;4589;48.690;8.952;2023-03-13T08:29:27;1.60;;;1.30;;
9106;SDS011;4589;48.690;8.952;2023-03-13T08:31:54;1.00;;;0.83;;
9106;SDS011;4589;48.690;8.952;2023-03-13T08:34:21;1.03;;;0.90;;
9106;SDS011;4589;48.690;8.952;2023-03-13T08:36:46;1.40;;;1.30;;
9106;SDS011;4589;48.690;8.952;2023-03-13T08:39:14;5.13;;;1.33;;
9106;SDS011;4589;48.690;8.952;2023-03-13T08:41:40;1.37;;;1.13;;
9106;SDS011;4589;48.690;8.952;2023-03-13T08:44:07;1.70;;;1.10;;
9106;SDS011;4589;48.690;8.952;2023-03-13T08:46:34;1.30;;;1.20;;
9106;SDS011;4589;48.690;8.952;2023-03-13T08:49:00;2.07;;;1.80;;
9106;SDS011;4589;48.690;8.952;2023-03-13T08:51:27;13.03;;;1.43;;
9106;SDS011;4589;48.690;8.952;2023-03-13T08:53:53;1.10;;;1.00;;
9106;SDS011;4589;48.690;8.952;2023-03-13T08:56:20;2.57;;;1.10;;
9106;SDS011;4589;48.690;8.952;2023-03-13T08:58:50;3.40;;;1.40;;
9106;SDS011;4589;48.690;8.952;2023-03-13T09:01:18;2.03;;;1.20;;
9106;SDS011;4589;48.690;8.952;2023-03-13T09:03:44;7.13;;;1.60;;
9106;SDS011;4589;48.690;8.952;2023-03-13T09:06:10;6.30;;;1.37;;
9106;SDS011;4589;48.690;8.952;2023-03-13T09:08:36;2.10;;;1.40;;
9106;SDS011;4589;48.690;8.952;2023-03-13T09:11:07;1.40;;;1.00;;
9106;SDS011;4589;48.690;8.952;2023-03-13T09:13:34;1.50;;;1.37;;
9106;SDS011;4589;48.690;8.952;2023-03-13T09:16:01;1.60;;;1.30;;
9106;SDS011;4589;48.690;8.952;2023-03-13T09:18:38;1.43;;;1.33;;
9106;SDS011;4589;48.690;8.952;2023-03-13T09:21:14;1.40;;;1.23;;
9106;SDS011;4589;48.690;8.952;2023-03-13T09:23:40;2.20;;;1.30;;
9106;SDS011;4589;48.690;8.952;2023-03-13T09:26:07;2.50;;;1.40;;
9106;SDS011;4589;48.690;8.952;2023-03-13T09:28:33;1.40;;;1.10;;
9106;SDS011;4589;48.690;8.952;2023-03-13T09:31:08;2.07;;;1.43;;
9106;SDS011;4589;48.690;8.952;2023-03-13T09:33:35;2.13;;;1.47;;
9106;SDS011;4589;48.690;8.952;2023-03-13T09:36:02;1.40;;;1.30;;
9106;SDS011;4589;48.690;8.952;2023-03-13T09:38:28;1.80;;;1.50;;
9106;SDS011;4589;48.690;8.952;2023-03-13T09:40:54;1.73;;;1.33;;
9106;SDS011;4589;48.690;8.952;2023-03-13T09:43:35;2.53;;;1.03;;
9106;SDS011;4589;48.690;8.952;2023-03-13T09:46:16;1.97;;;1.43;;
9106;SDS011;4589;48.690;8.952;2023-03-13T09:49:03;1.33;;;1.23;;
9106;SDS011;4589;48.690;8.952;2023-03-13T09:51:36;2.70;;;1.50;;
9106;SDS011;4589;48.690;8.952;2023-03-13T09:56:46;1.40;;;1.30;;
9106;SDS011;4589;48.690;8.952;2023-03-13T09:59:21;1.50;;;1.20;;
9106;SDS011;4589;48.690;8.952;2023-03-13T10:01:53;4.20;;;1.40;;
9106;SDS011;4589;48.690;8.952;2023-03-13T10:04:28;1.40;;;1.20;;
9106;SDS011;4589;48.690;8.952;2023-03-13T10:07:02;6.20;;;1.77;;
9106;SDS011;4589;48.690;8.952;2023-03-13T10:09:29;2.47;;;1.30;;
9106;SDS011;4589;48.690;8.952;2023-03-13T10:14:36;1.30;;;1.20;;
9106;SDS011;4589;48.690;8.952;2023-03-13T10:17:16;2.30;;;1.70;;
9106;SDS011;4589;48.690;8.952;2023-03-13T10:19:47;2.43;;;1.40;;
9106;SDS011;4589;48.690;8.952;2023-03-13T10:22:21;5.13;;;1.80;;
9106;SDS011;4589;48.690;8.952;2023-03-13T10:27:20;1.60;;;1.30;;
9106;SDS011;4589;48.690;8.952;2023-03-13T10:29:46;3.00;;;1.50;;
9106;SDS011;4589;48.690;8.952;2023-03-13T10:32:13;2.03;;;1.50;;
9106;SDS011;4589;48.690;8.952;2023-03-13T10:37:22;2.13;;;1.73;;
9106;SDS011;4589;48.690;8.952;2023-03-13T10:39:52;3.03;;;1.77;;
9106;SDS011;4589;48.690;8.952;2023-03-13T10:42:28;2.50;;;1.80;;
9106;SDS011;4589;48.690;8.952;2023-03-13T10:44:58;1.60;;;1.30;;
9106;SDS011;4589;48.690;8.952;2023-03-13T10:47:26;1.97;;;1.57;;
9106;SDS011;4589;48.690;8.952;2023-03-13T10:49:55;2.77;;;1.60;;
9106;SDS011;4589;48.690;8.952;2023-03-13T10:52:28;6.93;;;1.70;;
9106;SDS011;4589;48.690;8.952;2023-03-13T10:55:02;2.40;;;1.53;;
9106;SDS011;4589;48.690;8.952;2023-03-13T10:57:30;1.73;;;1.30;;
9106;SDS011;4589;48.690;8.952;2023-03-13T10:59:58;1.73;;;1.47;;
9106;SDS011;4589;48.690;8.952;2023-03-13T11:02:26;4.40;;;1.90;;
9106;SDS011;4589;48.690;8.952;2023-03-13T11:04:57;4.60;;;2.13;;
9106;SDS011;4589;48.690;8.952;2023-03-13T11:12:26;1.93;;;1.57;;
9106;SDS011;4589;48.690;8.952;2023-03-13T11:14:55;2.27;;;1.97;;
9106;SDS011;4589;48.690;8.952;2023-03-13T11:17:25;6.40;;;1.63;;
9106;SDS011;4589;48.690;8.952;2023-03-13T11:20:11;1.50;;;1.40;;
9106;SDS011;4589;48.690;8.952;2023-03-13T11:22:50;7.00;;;1.70;;
9106;SDS011;4589;48.690;8.952;2023-03-13T11:36:21;4.50;;;1.57;;
9106;SDS011;4589;48.690;8.952;2023-03-13T11:38:54;3.10;;;2.03;;
9106;SDS011;4589;48.690;8.952;2023-03-13T11:41:40;4.03;;;1.60;;
9106;SDS011;4589;48.690;8.952;2023-03-13T11:52:34;1.30;;;1.20;;
9106;SDS011;4589;48.690;8.952;2023-03-13T11:57:58;1.73;;;1.30;;
9106;SDS011;4589;48.690;8.952;2023-03-13T12:00:40;2.50;;;1.40;;
9106;SDS011;4589;48.690;8.952;2023-03-13T12:03:33;1.80;;;1.40;;
9106;SDS011;4589;48.690;8.952;2023-03-13T12:06:04;1.50;;;1.40;;
9106;SDS011;4589;48.690;8.952;2023-03-13T12:08:40;2.47;;;1.60;;
9106;SDS011;4589;48.690;8.952;2023-03-13T12:11:21;2.07;;;1.40;;
9106;SDS011;4589;48.690;8.952;2023-03-13T12:13:57;1.60;;;1.30;;
9106;SDS011;4589;48.690;8.952;2023-03-13T12:16:42;1.30;;;0.90;;
9106;SDS011;4589;48.690;8.952;2023-03-13T12:19:12;5.40;;;1.30;;
9106;SDS011;4589;48.690;8.952;2023-03-13T12:21:48;1.40;;;1.20;;
9106;SDS011;4589;48.690;8.952;2023-03-13T12:26:43;2.00;;;1.17;;
9106;SDS011;4589;48.690;8.952;2023-03-13T12:35:14;6.30;;;1.17;;
9106;SDS011;4589;48.690;8.952;2023-03-13T12:37:45;3.87;;;1.10;;
9106;SDS011;4589;48.690;8.952;2023-03-13T12:43:08;1.50;;;1.30;;
9106;SDS011;4589;48.690;8.952;2023-03-13T12:45:44;2.03;;;1.10;;
9106;SDS011;4589;48.690;8.952;2023-03-13T12:48:22;1.53;;;1.00;;
9106;SDS011;4589;48.690;8.952;2023-03-13T12:51:16;1.30;;;1.00;;
9106;SDS011;4589;48.690;8.952;2023-03-13T12:58:52;2.23;;;1.10;;
9106;SDS011;4589;48.690;8.952;2023-03-13T13:01:29;1.40;;;1.27;;
9106;SDS011;4589;48.690;8.952;2023-03-13T13:04:05;3.33;;;1.23;;
9106;SDS011;4589;48.690;8.952;2023-03-13T13:11:56;1.20;;;1.10;;
9106;SDS011;4589;48.690;8.952;2023-03-13T13:16:53;1.70;;;1.23;;
9106;SDS011;4589;48.690;8.952;2023-03-13T13:25:00;2.23;;;1.10;;
9106;SDS011;4589;48.690;8.952;2023-03-13T13:27:47;1.70;;;1.10;;
9106;SDS011;4589;48.690;8.952;2023-03-13T13:32:51;3.33;;;1.27;;
9106;SDS011;4589;48.690;8.952;2023-03-13T13:37:43;2.60;;;1.10;;
9106;SDS011;4589;48.690;8.952;2023-03-13T13:43:03;1.80;;;1.50;;
9106;SDS011;4589;48.690;8.952;2023-03-13T13:45:36;2.53;;;1.27;;
9106;SDS011;4589;48.690;8.952;2023-03-13T13:48:13;2.13;;;1.57;;
9106;SDS011;4589;48.690;8.952;2023-03-13T13:53:33;1.63;;;1.30;;
9106;SDS011;4589;48.690;8.952;2023-03-13T13:58:56;2.10;;;1.30;;
9106;SDS011;4589;48.690;8.952;2023-03-13T14:01:34;2.80;;;1.10;;
9106;SDS011;4589;48.690;8.952;2023-03-13T14:04:09;2.77;;;1.20;;
9106;SDS011;4589;48.690;8.952;2023-03-13T14:06:41;1.70;;;1.30;;
9106;SDS011;4589;48.690;8.952;2023-03-13T14:12:27;5.63;;;1.40;;
9106;SDS011;4589;48.690;8.952;2023-03-13T14:15:10;1.27;;;1.13;;
9106;SDS011;4589;48.690;8.952;2023-03-13T14:17:42;1.70;;;1.10;;
9106;SDS011;4589;48.690;8.952;2023-03-13T14:20:49;1.70;;;1.20;;
9106;SDS011;4589;48.690;8.952;2023-03-13T14:23:15;1.30;;;1.20;;
9106;SDS011;4589;48.690;8.952;2023-03-13T14:25:53;3.63;;;1.20;;
9106;SDS011;4589;48.690;8.952;2023-03-13T14:28:24;2.80;;;1.30;;
9106;SDS011;4589;48.690;8.952;2023-03-13T14:30:52;4.60;;;1.20;;
9106;SDS011;4589;48.690;8.952;2023-03-13T14:33:19;3.10;;;1.10;;
9106;SDS011;4589;48.690;8.952;2023-03-13T14:35:45;1.60;;;1.20;;
9106;SDS011;4589;48.690;8.952;2023-03-13T14:38:30;2.07;;;1.37;;
9106;SDS011;4589;48.690;8.952;2023-03-13T14:40:57;1.57;;;1.30;;
9106;SDS011;4589;48.690;8.952;2023-03-13T14:43:36;5.10;;;1.20;;
9106;SDS011;4589;48.690;8.952;2023-03-13T14:46:13;2.63;;;1.60;;
9106;SDS011;4589;48.690;8.952;2023-03-13T14:48:45;3.10;;;1.50;;
9106;SDS011;4589;48.690;8.952;2023-03-13T14:51:19;1.83;;;1.17;;
9106;SDS011;4589;48.690;8.952;2023-03-13T14:53:53;3.63;;;1.40;;
9106;SDS011;4589;48.690;8.952;2023-03-13T14:56:31;3.30;;;1.33;;
9106;SDS011;4589;48.690;8.952;2023-03-13T14:59:16;1.77;;;1.40;;
9106;SDS011;4589;48.690;8.952;2023-03-13T15:01:56;5.00;;;1.27;;
9106;SDS011;4589;48.690;8.952;2023-03-13T15:07:07;1.50;;;1.40;;
9106;SDS011;4589;48.690;8.952;2023-03-13T15:09:33;2.00;;;1.30;;
9106;SDS011;4589;48.690;8.952;2023-03-13T15:12:11;1.67;;;1.10;;
9106;SDS011;4589;48.690;8.952;2023-03-13T15:14:46;1.70;;;1.30;;
9106;SDS011;4589;48.690;8.952;2023-03-13T15:17:18;2.00;;;1.30;;
9106;SDS011;4589;48.690;8.952;2023-03-13T15:19:50;1.77;;;1.27;;
9106;SDS011;4589;48.690;8.952;2023-03-13T15:22:16;2.07;;;1.20;;
9106;SDS011;4589;48.690;8.952;2023-03-13T15:24:43;1.50;;;1.40;;
9106;SDS011;4589;48.690;8.952;2023-03-13T15:27:16;2.03;;;1.30;;
9106;SDS011;4589;48.690;8.952;2023-03-13T15:29:45;2.60;;;1.60;;
9106;SDS011;4589;48.690;8.952;2023-03-13T15:32:14;3.93;;;1.33;;
9106;SDS011;4589;48.690;8.952;2023-03-13T15:34:41;2.10;;;1.27;;
9106;SDS011;4589;48.690;8.952;2023-03-13T15:37:09;1.80;;;1.17;;
9106;SDS011;4589;48.690;8.952;2023-03-13T15:39:36;1.97;;;1.13;;
9106;SDS011;4589;48.690;8.952;2023-03-13T15:42:02;2.30;;;1.50;;
9106;SDS011;4589;48.690;8.952;2023-03-13T15:44:28;1.60;;;1.30;;
9106;SDS011;4589;48.690;8.952;2023-03-13T15:46:54;1.90;;;1.43;;
9106;SDS011;4589;48.690;8.952;2023-03-13T15:49:20;2.40;;;1.50;;
9106;SDS011;4589;48.690;8.952;2023-03-13T15:51:46;3.73;;;1.50;;
9106;SDS011;4589;48.690;8.952;2023-03-13T15:54:11;1.53;;;1.23;;
9106;SDS011;4589;48.690;8.952;2023-03-13T15:56:38;2.47;;;1.37;;
9106;SDS011;4589;48.690;8.952;2023-03-13T15:59:14;2.33;;;1.30;;
9106;SDS011;4589;48.690;8.952;2023-03-13T16:01:40;1.90;;;1.33;;
9106;SDS011;4589;48.690;8.952;2023-03-13T16:04:08;6.70;;;1.87;;
9106;SDS011;4589;48.690;8.952;2023-03-13T16:06:34;1.80;;;1.40;;
9106;SDS011;4589;48.690;8.952;2023-03-13T16:09:01;1.70;;;1.40;;
9106;SDS011;4589;48.690;8.952;2023-03-13T16:11:29;1.50;;;1.27;;
9106;SDS011;4589;48.690;8.952;2023-03-13T16:13:55;1.77;;;1.30;;
9106;SDS011;4589;48.690;8.952;2023-03-13T16:16:23;1.50;;;1.40;;
9106;SDS011;4589;48.690;8.952;2023-03-13T16:18:50;2.10;;;1.20;;
9106;SDS011;4589;48.690;8.952;2023-03-13T16:21:17;1.93;;;1.43;;
9106;SDS011;4589;48.690;8.952;2023-03-13T16:23:44;1.40;;;1.20;;
9106;SDS011;4589;48.690;8.952;2023-03-13T16:26:17;4.60;;;1.43;;
9106;SDS011;4589;48.690;8.952;2023-03-13T16:28:44;2.50;;;1.60;;
9106;SDS011;4589;48.690;8.952;2023-03-13T16:31:29;2.37;;;1.30;;
9106;SDS011;4589;48.690;8.952;2023-03-13T16:33:56;1.50;;;1.20;;
9106;SDS011;4589;48.690;8.952;2023-03-13T16:36:26;1.30;;;1.10;;
9106;SDS011;4589;48.690;8.952;2023-03-13T16:38:54;1.50;;;1.40;;
9106;SDS011;4589;48.690;8.952;2023-03-13T16:41:21;2.03;;;1.33;;
9106;SDS011;4589;48.690;8.952;2023-03-13T16:43:47;3.43;;;1.37;;
9106;SDS011;4589;48.690;8.952;2023-03-13T16:48:42;1.63;;;1.23;;
9106;SDS011;4589;48.690;8.952;2023-03-13T16:51:13;1.40;;;1.20;;
9106;SDS011;4589;48.690;8.952;2023-03-13T16:53:41;4.20;;;1.20;;
9106;SDS011;4589;48.690;8.952;2023-03-13T16:56:13;2.80;;;1.47;;